createdAt,value
2023-05-09T00:02:10.597Z,12.23
2023-05-09T00:04:47.175Z,11.32
2023-05-09T00:07:22.023Z,10.32
2023-05-09T00:10:11.779Z,12.48
2023-05-09T00:12:50.880Z,10.23
2023-05-09T00:15:29.266Z,12.05
2023-05-09T00:18:04.912Z,13.68
2023-05-09T00:20:42.329Z,12.50
2023-05-09T00:23:22.618Z,15.65
2023-05-09T00:26:06.500Z,14.07
2023-05-09T00:28:42.523Z,15.38
2023-05-09T00:33:59.368Z,14.48
2023-05-09T00:36:36.466Z,11.63
2023-05-09T00:39:12.901Z,13.75
2023-05-09T00:54:09.388Z,12.90
2023-05-09T01:13:18.955Z,15.52
2023-05-09T01:16:02.073Z,15.82
2023-05-09T01:18:45.809Z,12.05
2023-05-09T01:21:20.041Z,12.90
2023-05-09T01:24:25.651Z,15.23
2023-05-09T01:27:10.912Z,13.10
2023-05-09T01:29:54.444Z,21.42
2023-05-09T01:32:32.798Z,18.58
2023-05-09T01:35:17.894Z,13.63
2023-05-09T01:38:04.465Z,13.27
2023-05-09T01:43:19.020Z,12.15
2023-05-09T01:46:00.715Z,12.18
2023-05-09T01:48:35.665Z,13.52
2023-05-09T01:51:11.661Z,11.87
2023-05-09T01:53:47.980Z,14.40
2023-05-09T01:56:25.805Z,12.00
2023-05-09T01:59:06.383Z,12.50
2023-05-09T02:01:45.085Z,11.25
2023-05-09T02:04:24.287Z,14.25
2023-05-09T02:07:03.915Z,13.93
2023-05-09T02:09:40.078Z,12.05
2023-05-09T02:12:15.610Z,13.27
2023-05-09T02:14:51.357Z,11.57
2023-05-09T02:17:33.941Z,13.80
2023-05-09T02:20:12.591Z,15.80
2023-05-09T02:22:51.817Z,13.82
2023-05-09T02:25:31.074Z,15.77
2023-05-09T02:28:07.709Z,15.13
2023-05-09T02:30:46.522Z,13.65
2023-05-09T02:33:30.574Z,18.73
2023-05-09T02:36:09.206Z,14.73
2023-05-09T02:38:46.756Z,15.55
2023-05-09T02:41:24.082Z,31.45
2023-05-09T02:44:00.750Z,24.10
2023-05-09T02:46:36.929Z,17.40
2023-05-09T02:52:11.591Z,12.52
2023-05-09T02:54:48.768Z,15.80
2023-05-09T02:57:36.378Z,14.60
2023-05-09T03:00:25.406Z,13.13
2023-05-09T03:03:06.777Z,15.20
2023-05-09T03:05:45.692Z,13.07
2023-05-09T03:08:22.039Z,16.02
2023-05-09T03:13:48.713Z,12.80
2023-05-09T03:16:27.962Z,12.90
2023-05-09T03:19:05.783Z,15.20
2023-05-09T03:21:46.062Z,22.25
2023-05-09T03:24:24.600Z,12.88
2023-05-09T03:27:04.821Z,15.15
2023-05-09T03:29:50.014Z,13.75
2023-05-09T03:32:31.955Z,12.40
2023-05-09T03:35:11.276Z,16.67
2023-05-09T03:37:52.703Z,12.95
2023-05-09T03:40:29.511Z,18.45
2023-05-09T03:43:20.274Z,16.95
2023-05-09T03:45:56.790Z,14.02
2023-05-09T03:48:34.864Z,12.25
2023-05-09T03:51:13.887Z,11.53
2023-05-09T03:53:57.517Z,12.70
2023-05-09T03:56:33.730Z,17.80
2023-05-09T03:59:11.182Z,13.98
2023-05-09T04:01:55.428Z,13.93
2023-05-09T04:04:36.507Z,15.48
2023-05-09T04:07:12.944Z,13.05
2023-05-09T04:12:31.060Z,11.23
2023-05-09T04:15:20.760Z,12.70
2023-05-09T04:17:58.703Z,13.90
2023-05-09T04:20:33.672Z,14.98
2023-05-09T04:23:13.960Z,10.65
2023-05-09T04:25:55.845Z,12.32
2023-05-09T04:31:29.193Z,13.05
2023-05-09T04:34:04.061Z,12.35
2023-05-09T04:36:52.593Z,11.43
2023-05-09T04:39:32.682Z,10.77
2023-05-09T04:42:20.225Z,14.48
2023-05-09T04:48:01.723Z,11.18
2023-05-09T04:50:41.939Z,9.82
2023-05-09T04:53:20.764Z,11.18
2023-05-09T04:56:01.836Z,10.70
2023-05-09T04:58:38.892Z,9.53
2023-05-09T05:01:20.186Z,12.10
2023-05-09T05:04:01.320Z,8.65
2023-05-09T05:06:49.515Z,10.20
2023-05-09T05:09:39.735Z,8.57
2023-05-09T05:12:15.499Z,10.82
2023-05-09T05:14:58.175Z,10.15
2023-05-09T05:17:36.892Z,9.90
2023-05-09T05:20:16.033Z,9.10
2023-05-09T05:26:19.787Z,9.30
2023-05-09T05:44:37.566Z,8.57
2023-05-09T05:53:39.928Z,7.60
2023-05-09T05:59:35.770Z,7.05
2023-05-09T06:14:27.151Z,7.20
2023-05-09T06:17:02.220Z,5.97
2023-05-09T06:19:38.941Z,10.85
2023-05-09T06:22:15.549Z,7.57
2023-05-09T06:24:54.570Z,6.65
2023-05-09T06:27:35.575Z,6.10
2023-05-09T06:30:23.896Z,6.55
2023-05-09T06:33:04.646Z,7.80
2023-05-09T06:35:40.313Z,7.77
2023-05-09T06:38:15.600Z,5.97
2023-05-09T06:40:58.148Z,7.05
2023-05-09T06:43:34.302Z,6.20
2023-05-09T06:46:13.593Z,7.03
2023-05-09T06:48:53.448Z,7.88
2023-05-09T06:51:31.915Z,8.07
2023-05-09T06:54:10.434Z,6.85
2023-05-09T06:56:45.104Z,6.25
2023-05-09T06:59:21.841Z,7.35
2023-05-09T07:01:59.050Z,6.93
2023-05-09T07:04:41.772Z,7.55
2023-05-09T07:07:19.223Z,6.77
2023-05-09T07:10:07.391Z,7.00
2023-05-09T07:12:47.261Z,7.60
2023-05-09T07:15:39.837Z,5.97
2023-05-09T07:18:20.684Z,11.27
2023-05-09T07:21:03.368Z,7.57
2023-05-09T07:23:39.558Z,6.25
2023-05-09T07:26:19.354Z,8.73
2023-05-09T07:29:02.306Z,6.47
2023-05-09T07:31:40.064Z,11.48
2023-05-09T07:34:23.252Z,5.63
2023-05-09T07:37:06.753Z,4.38
2023-05-09T07:39:47.938Z,7.85
2023-05-09T07:42:25.014Z,4.18
2023-05-09T07:45:12.096Z,4.97
2023-05-09T07:47:52.249Z,8.02
2023-05-09T07:50:33.430Z,12.35
2023-05-09T07:56:07.360Z,3.33
2023-05-09T07:58:53.104Z,6.57
2023-05-09T08:01:32.826Z,7.13
2023-05-09T08:04:11.501Z,5.75
2023-05-09T08:06:58.274Z,8.40
2023-05-09T08:16:02.692Z,5.03
2023-05-09T08:25:13.164Z,8.05
2023-05-09T08:37:19.972Z,4.80
2023-05-09T08:40:02.366Z,6.45
2023-05-09T08:42:45.394Z,5.68
2023-05-09T08:45:34.001Z,5.95
2023-05-09T08:51:11.658Z,4.55
2023-05-09T08:56:38.321Z,5.72
2023-05-09T08:59:28.051Z,6.68
2023-05-09T09:02:14.483Z,4.80
2023-05-09T09:05:23.977Z,4.65
2023-05-09T09:11:10.560Z,5.63
2023-05-09T09:13:50.656Z,4.55
2023-05-09T09:16:36.969Z,3.65
2023-05-09T09:28:06.099Z,7.18
2023-05-09T09:30:54.767Z,6.33
2023-05-09T09:33:48.849Z,4.25
2023-05-09T09:36:53.741Z,3.80
2023-05-09T09:42:38.953Z,5.93
2023-05-09T09:45:18.342Z,4.65
2023-05-09T09:47:58.415Z,4.03
2023-05-09T09:50:42.055Z,9.37
2023-05-09T09:53:24.451Z,8.93
2023-05-09T09:56:02.656Z,4.85
2023-05-09T09:58:48.327Z,8.45
2023-05-09T10:01:28.985Z,3.90
2023-05-09T10:04:13.186Z,4.30
2023-05-09T10:07:17.032Z,3.90
2023-05-09T10:10:06.737Z,3.85
2023-05-09T10:12:48.364Z,5.30
2023-05-09T10:18:36.033Z,5.15
2023-05-09T10:24:08.141Z,4.22
2023-05-09T10:35:54.123Z,3.92
2023-05-09T10:38:42.138Z,5.35
2023-05-09T10:41:21.857Z,4.20
2023-05-09T10:44:09.968Z,3.80
2023-05-09T10:46:55.543Z,5.88
2023-05-09T10:49:45.305Z,3.73
2023-05-09T10:55:23.066Z,6.15
2023-05-09T10:58:05.666Z,3.17
2023-05-09T11:00:45.783Z,4.07
2023-05-09T11:03:28.578Z,4.65
2023-05-09T11:06:07.628Z,3.25
2023-05-09T11:08:45.864Z,4.90
2023-05-09T11:11:29.396Z,6.32
2023-05-09T11:14:18.153Z,5.55
2023-05-09T11:17:04.397Z,4.38
2023-05-09T11:41:30.389Z,4.53
2023-05-09T11:44:09.320Z,6.97
2023-05-09T11:52:42.180Z,5.13
2023-05-09T11:55:24.567Z,6.65
2023-05-09T12:01:12.222Z,5.78
2023-05-09T12:03:59.268Z,5.28
2023-05-09T12:06:36.332Z,3.35
2023-05-09T12:09:18.629Z,7.10
2023-05-09T12:12:14.595Z,9.02
2023-05-09T12:17:31.849Z,2.55
2023-05-09T12:20:13.385Z,5.80
2023-05-09T12:22:50.739Z,5.70
2023-05-09T12:25:26.626Z,5.25
2023-05-09T12:30:41.614Z,7.63
2023-05-09T12:33:21.633Z,4.70
2023-05-09T12:35:56.072Z,2.85
2023-05-09T12:38:38.040Z,6.82
2023-05-09T12:41:35.133Z,4.28
2023-05-09T12:44:12.959Z,5.40
2023-05-09T12:46:57.169Z,4.28
2023-05-09T12:49:32.262Z,2.60
2023-05-09T12:52:12.168Z,9.25
2023-05-09T12:57:41.741Z,4.43
2023-05-09T13:00:34.159Z,6.17
2023-05-09T13:06:25.665Z,7.10
2023-05-09T13:09:06.705Z,4.10
2023-05-09T13:11:44.287Z,5.50
2023-05-09T13:14:23.288Z,6.43
2023-05-09T13:17:01.278Z,4.45
2023-05-09T13:19:40.551Z,9.18
2023-05-09T13:22:32.184Z,7.18
2023-05-09T13:25:16.851Z,3.27
2023-05-09T13:27:57.912Z,8.65
2023-05-09T13:30:38.459Z,4.38
2023-05-09T13:33:25.916Z,4.77
2023-05-09T13:36:00.985Z,7.55
2023-05-09T13:38:46.289Z,4.93
2023-05-09T13:41:24.338Z,7.35
2023-05-09T13:44:09.048Z,4.35
2023-05-09T13:59:37.435Z,5.40
2023-05-09T14:07:53.379Z,5.43
2023-05-09T14:19:36.875Z,4.93
2023-05-09T14:25:24.139Z,5.80
2023-05-09T14:31:36.378Z,4.88
2023-05-09T14:46:51.342Z,6.38
2023-05-09T14:49:26.574Z,5.93
2023-05-09T14:52:02.374Z,5.63
2023-05-09T14:54:43.160Z,5.70
2023-05-09T14:57:24.885Z,6.28
2023-05-09T15:00:16.744Z,7.55
2023-05-09T15:03:13.517Z,6.90
2023-05-09T15:05:51.313Z,6.32
2023-05-09T15:08:34.934Z,6.30
2023-05-09T15:11:16.076Z,6.45
2023-05-09T15:14:06.209Z,4.55
2023-05-09T15:16:42.871Z,6.68
2023-05-09T15:19:27.061Z,5.40
2023-05-09T15:22:06.161Z,6.50
2023-05-09T15:24:45.779Z,4.85
2023-05-09T15:27:30.563Z,7.75
2023-05-09T15:30:36.153Z,6.70
2023-05-09T15:39:33.840Z,3.10
2023-05-09T15:45:18.724Z,6.25
2023-05-09T15:48:03.066Z,3.90
2023-05-09T15:50:46.980Z,5.35
2023-05-09T15:53:29.564Z,4.35
2023-05-09T16:27:45.061Z,4.75
2023-05-09T16:39:49.060Z,3.63
2023-05-09T16:48:12.387Z,4.50
2023-05-09T16:50:54.326Z,4.60
2023-05-09T17:08:53.721Z,2.88
2023-05-09T17:24:21.815Z,5.57
2023-05-09T17:36:17.877Z,6.32
2023-05-09T17:39:03.359Z,4.90
2023-05-09T18:02:51.038Z,5.93
2023-05-09T18:15:38.618Z,3.40
2023-05-09T18:21:20.418Z,5.03
2023-05-09T18:23:59.339Z,7.45
2023-05-09T18:26:52.174Z,5.97
2023-05-09T18:32:20.109Z,6.22
2023-05-09T18:35:20.126Z,3.65
2023-05-09T18:40:52.827Z,6.68
2023-05-09T18:43:43.877Z,6.25
2023-05-09T18:49:38.656Z,6.18
2023-05-09T18:55:31.213Z,4.50
2023-05-09T18:58:10.993Z,3.83
2023-05-09T19:00:47.717Z,7.90
2023-05-09T19:03:28.287Z,6.18
2023-05-09T19:06:10.100Z,6.68
2023-05-09T19:08:44.164Z,6.15
2023-05-09T19:11:31.111Z,5.65
2023-05-09T19:14:09.830Z,10.90
2023-05-09T19:16:51.523Z,6.40
2023-05-09T19:19:33.871Z,8.60
2023-05-09T19:22:11.290Z,6.53
2023-05-09T19:24:51.913Z,10.20
2023-05-09T19:27:36.881Z,7.18
2023-05-09T19:30:16.774Z,7.05
2023-05-09T19:32:52.804Z,7.45
2023-05-09T19:35:30.284Z,6.90
2023-05-09T19:38:09.646Z,9.02
2023-05-09T19:40:46.047Z,7.93
2023-05-09T19:43:28.722Z,6.80
2023-05-09T19:46:09.771Z,8.88
2023-05-09T19:48:46.903Z,5.72
2023-05-09T19:51:26.608Z,8.20
2023-05-09T19:54:08.297Z,6.07
2023-05-09T19:56:46.535Z,7.43
2023-05-09T19:59:30.607Z,6.45
2023-05-09T20:02:07.826Z,6.43
2023-05-09T20:04:50.620Z,8.87
2023-05-09T20:07:28.364Z,6.20
2023-05-09T20:10:04.740Z,6.93
2023-05-09T20:12:41.227Z,6.40
2023-05-09T20:15:24.113Z,8.90
2023-05-09T20:18:00.070Z,4.55
2023-05-09T20:20:36.604Z,6.53
2023-05-09T20:23:13.285Z,6.00
2023-05-09T20:25:53.790Z,7.55
2023-05-09T20:28:31.901Z,7.43
2023-05-09T20:31:11.657Z,3.95
2023-05-09T20:33:50.560Z,7.25
2023-05-09T20:36:27.579Z,11.15
2023-05-09T20:39:04.595Z,5.05
2023-05-09T20:41:42.134Z,5.70
2023-05-09T20:44:18.900Z,5.35
2023-05-09T20:46:57.490Z,5.13
2023-05-09T20:49:34.618Z,8.75
2023-05-09T20:52:11.132Z,6.10
2023-05-09T20:54:51.594Z,6.10
2023-05-09T20:57:29.146Z,5.57
2023-05-09T21:00:11.503Z,6.50
2023-05-09T21:02:50.059Z,8.52
2023-05-09T21:05:28.822Z,5.15
2023-05-09T21:08:05.679Z,6.05
2023-05-09T21:10:42.013Z,5.13
2023-05-09T21:13:18.927Z,7.73
2023-05-09T21:15:54.820Z,9.02
2023-05-09T21:18:31.426Z,5.50
2023-05-09T21:21:10.703Z,5.97
2023-05-09T21:23:49.952Z,6.55
2023-05-09T21:26:25.948Z,7.28
2023-05-09T21:31:41.138Z,6.53
2023-05-09T21:34:17.193Z,7.22
2023-05-09T21:39:33.638Z,8.83
2023-05-09T21:42:11.885Z,6.90
2023-05-09T22:16:42.232Z,7.35
2023-05-09T22:22:53.069Z,8.75
2023-05-09T23:09:45.997Z,6.30
2023-05-09T23:12:29.633Z,5.78
2023-05-09T23:15:11.749Z,5.20
2023-05-09T23:20:27.384Z,4.68
2023-05-09T23:23:04.477Z,7.30
2023-05-09T23:25:39.674Z,9.43
2023-05-09T23:28:25.482Z,5.10
2023-05-09T23:30:57.639Z,8.38
2023-05-09T23:33:34.857Z,7.72
2023-05-09T23:36:15.961Z,11.40
2023-05-09T23:38:51.672Z,7.70
2023-05-09T23:41:28.923Z,8.20
2023-05-09T23:44:10.398Z,4.65
2023-05-09T23:46:47.016Z,6.97
